GSMCB ENSB-EGNJ
Flight info
| Callsign | GSMCB |
|---|---|
| Flight time | N/A |
| Altitude | 36000 |
| Route | SUSES DCT LUNEV P600 PITOL DCT ORTEN/N0454F370 DCT USIKI T63 BAMIP/N0459F380 P600 ATLEM Z108 TUXOT Z101 TUTBI M609 GIMEX P600 ROPNO DCT NIVUN DCT CUTEL/N0443F390 DCT ASKAM/N0442F380 DCT LIBSO L90 OTR |
| Aircraft | A20N/M-SDE2E3FGHIRWXY/LB1 |
Departure
| Time | 2026-05-05 18:47 |
|---|---|
| Airport | Svalbard Airport, Longyear (ENSB) |
Arrival
| Time | N/A |
|---|---|
| Airport | Humberside Airport (EGNJ) |
| Time | Latitude | Longitude | Altitude | Speed | Heading |
|---|---|---|---|---|---|
| 2026-05-05 18:11 | 78.24628 | 15.49330 | 75 ft | 0 kts | 79° |
| 2026-05-05 18:41 | 78.24627 | 15.49347 | 87 ft | 4 kts | 88° |
| 2026-05-05 18:41 | 78.24606 | 15.49474 | 89 ft | 7 kts | 135° |
| 2026-05-05 18:41 | 78.24564 | 15.49575 | 88 ft | 7 kts | 180° |
| 2026-05-05 18:42 | 78.24540 | 15.49556 | 87 ft | 0 kts | 193° |
| 2026-05-05 18:42 | 78.24540 | 15.49555 | 87 ft | 1 kts | 193° |
| 2026-05-05 18:42 | 78.24481 | 15.49457 | 88 ft | 12 kts | 223° |
| 2026-05-05 18:42 | 78.24474 | 15.49023 | 91 ft | 15 kts | 281° |
| 2026-05-05 18:43 | 78.24503 | 15.48463 | 89 ft | 18 kts | 287° |
| 2026-05-05 18:43 | 78.24542 | 15.47824 | 88 ft | 21 kts | 286° |
| 2026-05-05 18:43 | 78.24584 | 15.47113 | 88 ft | 23 kts | 285° |
| 2026-05-05 18:43 | 78.24628 | 15.46335 | 88 ft | 25 kts | 284° |
| 2026-05-05 18:44 | 78.24671 | 15.45496 | 87 ft | 26 kts | 284° |
| 2026-05-05 18:44 | 78.24722 | 15.44612 | 91 ft | 28 kts | 285° |
| 2026-05-05 18:44 | 78.24773 | 15.43691 | 88 ft | 29 kts | 285° |
| 2026-05-05 18:44 | 78.24827 | 15.42699 | 89 ft | 30 kts | 285° |
| 2026-05-05 18:45 | 78.24881 | 15.41702 | 90 ft | 29 kts | 284° |
| 2026-05-05 18:45 | 78.24898 | 15.41352 | 89 ft | 9 kts | 279° |
| 2026-05-05 18:45 | 78.24920 | 15.41165 | 89 ft | 3 kts | 15° |
| 2026-05-05 18:45 | 78.24916 | 15.41242 | 93 ft | 6 kts | 137° |
| 2026-05-05 18:46 | 78.24893 | 15.41483 | 88 ft | 9 kts | 103° |
| 2026-05-05 18:46 | 78.24871 | 15.41941 | 89 ft | 35 kts | 103° |
| 2026-05-05 18:46 | 78.24737 | 15.44344 | 91 ft | 108 kts | 106° |
| 2026-05-05 18:46 | 78.24498 | 15.48615 | 359 ft | 136 kts | 105° |
| 2026-05-05 18:47 | 78.24269 | 15.52986 | 1165 ft | 134 kts | 102° |
| 2026-05-05 18:47 | 78.24029 | 15.57642 | 1848 ft | 146 kts | 98° |
| 2026-05-05 18:47 | 78.23766 | 15.62724 | 2369 ft | 161 kts | 100° |
| 2026-05-05 18:47 | 78.23447 | 15.68149 | 2891 ft | 176 kts | 104° |
| 2026-05-05 18:48 | 78.22787 | 15.73666 | 3373 ft | 198 kts | 123° |
| 2026-05-05 18:48 | 78.21902 | 15.79269 | 3788 ft | 220 kts | 121° |
| 2026-05-05 18:48 | 78.20950 | 15.85659 | 4181 ft | 244 kts | 120° |
| 2026-05-05 18:48 | 78.19944 | 15.92853 | 4562 ft | 268 kts | 117° |
| 2026-05-05 18:49 | 78.18940 | 16.00986 | 4957 ft | 288 kts | 119° |
| 2026-05-05 18:49 | 78.17803 | 16.08684 | 5433 ft | 269 kts | 120° |
| 2026-05-05 18:49 | 78.16791 | 16.15585 | 5630 ft | 253 kts | 120° |
| 2026-05-05 18:49 | 78.15769 | 16.22644 | 5739 ft | 255 kts | 119° |
| 2026-05-05 18:50 | 78.14786 | 16.29752 | 5968 ft | 257 kts | 117° |
| 2026-05-05 18:50 | 78.13810 | 16.37072 | 6776 ft | 257 kts | 117° |
| 2026-05-05 18:50 | 78.12838 | 16.44508 | 7722 ft | 259 kts | 117° |
| 2026-05-05 18:50 | 78.11880 | 16.51878 | 8567 ft | 264 kts | 117° |
| 2026-05-05 18:51 | 78.10893 | 16.59467 | 9461 ft | 267 kts | 117° |
| 2026-05-05 18:51 | 78.09890 | 16.67162 | 10269 ft | 272 kts | 117° |
| 2026-05-05 18:51 | 78.08851 | 16.75113 | 10741 ft | 290 kts | 117° |
| 2026-05-05 18:51 | 78.07729 | 16.83673 | 10984 ft | 311 kts | 118° |
| 2026-05-05 18:52 | 78.06535 | 16.92698 | 11516 ft | 321 kts | 118° |
| 2026-05-05 18:52 | 78.05318 | 17.01809 | 12258 ft | 325 kts | 118° |
| 2026-05-05 18:52 | 78.04076 | 17.11034 | 13011 ft | 330 kts | 120° |
| 2026-05-05 18:52 | 78.02444 | 17.19045 | 13750 ft | 343 kts | 141° |
| 2026-05-05 18:53 | 78.00224 | 17.23836 | 14406 ft | 357 kts | 163° |
| 2026-05-05 18:53 | 77.97717 | 17.24528 | 15062 ft | 368 kts | 185° |
| 2026-05-05 18:53 | 77.95248 | 17.20935 | 15702 ft | 375 kts | 206° |
| 2026-05-05 18:53 | 77.93152 | 17.13459 | 16310 ft | 380 kts | 227° |
| 2026-05-05 18:54 | 77.91690 | 17.02989 | 16923 ft | 381 kts | 249° |
| 2026-05-05 18:54 | 77.90995 | 16.90847 | 17544 ft | 380 kts | 264° |
| 2026-05-05 18:54 | 77.90667 | 16.78456 | 18146 ft | 383 kts | 266° |
| 2026-05-05 18:54 | 77.90308 | 16.65795 | 18728 ft | 387 kts | 263° |
| 2026-05-05 18:55 | 77.89828 | 16.53150 | 19294 ft | 389 kts | 261° |
| 2026-05-05 18:55 | 77.89248 | 16.40514 | 19829 ft | 392 kts | 259° |
| 2026-05-05 18:55 | 77.88605 | 16.27847 | 20367 ft | 395 kts | 258° |
| 2026-05-05 18:55 | 77.87929 | 16.15133 | 20902 ft | 398 kts | 257° |
| 2026-05-05 18:56 | 77.87236 | 16.02350 | 21438 ft | 400 kts | 257° |
| 2026-05-05 18:56 | 77.86531 | 15.89467 | 21929 ft | 403 kts | 257° |
| 2026-05-05 18:56 | 77.85817 | 15.76518 | 22435 ft | 406 kts | 257° |
| 2026-05-05 18:56 | 77.85095 | 15.63519 | 22926 ft | 409 kts | 257° |
| 2026-05-05 18:57 | 77.84370 | 15.50582 | 23424 ft | 411 kts | 256° |
| 2026-05-05 18:57 | 77.83622 | 15.37442 | 23896 ft | 414 kts | 254° |
| 2026-05-05 18:57 | 77.82449 | 15.24963 | 24280 ft | 418 kts | 238° |
| 2026-05-05 18:57 | 77.80598 | 15.14308 | 24665 ft | 421 kts | 222° |
| 2026-05-05 18:58 | 77.78213 | 15.06318 | 25039 ft | 422 kts | 206° |
| 2026-05-05 18:58 | 77.75472 | 15.01383 | 25403 ft | 423 kts | 194° |
| 2026-05-05 18:58 | 77.72609 | 14.98016 | 25754 ft | 425 kts | 192° |
| 2026-05-05 18:58 | 77.69712 | 14.94897 | 26126 ft | 428 kts | 192° |
| 2026-05-05 18:59 | 77.66830 | 14.91654 | 26494 ft | 431 kts | 193° |
| 2026-05-05 18:59 | 77.63912 | 14.88184 | 26833 ft | 434 kts | 193° |
| 2026-05-05 18:59 | 77.60980 | 14.84576 | 27175 ft | 436 kts | 194° |
| 2026-05-05 18:59 | 77.58043 | 14.80909 | 27502 ft | 439 kts | 194° |
| 2026-05-05 19:00 | 77.55079 | 14.77199 | 27823 ft | 442 kts | 194° |
| 2026-05-05 19:00 | 77.52138 | 14.73530 | 28123 ft | 444 kts | 194° |
| 2026-05-05 19:00 | 77.49147 | 14.69820 | 28429 ft | 447 kts | 194° |
| 2026-05-05 19:00 | 77.46139 | 14.66109 | 28735 ft | 449 kts | 194° |
| 2026-05-05 19:01 | 77.43100 | 14.62381 | 29027 ft | 451 kts | 194° |
| 2026-05-05 19:01 | 77.40052 | 14.58660 | 29307 ft | 454 kts | 194° |
| 2026-05-05 19:01 | 77.36992 | 14.54945 | 29577 ft | 456 kts | 193° |
| 2026-05-05 19:01 | 77.33913 | 14.51225 | 29854 ft | 458 kts | 193° |
| 2026-05-05 19:02 | 77.30860 | 14.47555 | 30119 ft | 461 kts | 193° |
| 2026-05-05 19:02 | 77.27789 | 14.43877 | 30342 ft | 463 kts | 193° |
| 2026-05-05 19:02 | 77.24654 | 14.40144 | 30569 ft | 465 kts | 193° |
| 2026-05-05 19:02 | 77.21512 | 14.36423 | 30773 ft | 467 kts | 193° |
| 2026-05-05 19:03 | 77.18328 | 14.33477 | 30989 ft | 468 kts | 186° |
| 2026-05-05 19:03 | 77.15071 | 14.32570 | 31185 ft | 469 kts | 177° |
| 2026-05-05 19:03 | 77.11831 | 14.33852 | 31428 ft | 467 kts | 169° |
| 2026-05-05 19:03 | 77.08623 | 14.36294 | 31688 ft | 468 kts | 168° |
| 2026-05-05 19:04 | 77.05410 | 14.38777 | 31950 ft | 468 kts | 168° |
| 2026-05-05 19:04 | 77.02196 | 14.41202 | 32209 ft | 469 kts | 168° |
| 2026-05-05 19:04 | 76.98974 | 14.43578 | 32456 ft | 470 kts | 169° |
| 2026-05-05 19:04 | 76.95745 | 14.45910 | 32705 ft | 470 kts | 169° |
| 2026-05-05 19:05 | 76.92550 | 14.48187 | 32976 ft | 470 kts | 169° |
| 2026-05-05 19:05 | 76.89317 | 14.50471 | 33191 ft | 471 kts | 169° |
| 2026-05-05 19:05 | 76.86080 | 14.52754 | 33438 ft | 471 kts | 169° |
| 2026-05-05 19:05 | 76.82833 | 14.55036 | 33685 ft | 471 kts | 169° |
| 2026-05-05 19:06 | 76.79595 | 14.57299 | 33913 ft | 471 kts | 169° |
| 2026-05-05 19:06 | 76.76352 | 14.59551 | 34155 ft | 471 kts | 169° |
| 2026-05-05 19:06 | 76.73106 | 14.61788 | 34352 ft | 471 kts | 169° |
| 2026-05-05 19:06 | 76.69868 | 14.64015 | 34533 ft | 471 kts | 169° |
| 2026-05-05 19:07 | 76.66671 | 14.66203 | 34708 ft | 471 kts | 169° |
| 2026-05-05 19:07 | 76.64485 | 14.67692 | 34816 ft | 471 kts | 169° |
| 2026-05-05 19:07 | 76.60192 | 14.70606 | 35055 ft | 470 kts | 169° |
| 2026-05-05 19:07 | 76.56958 | 14.72789 | 35223 ft | 470 kts | 169° |
| 2026-05-05 19:08 | 76.53721 | 14.74963 | 35360 ft | 470 kts | 169° |
| 2026-05-05 19:08 | 76.50485 | 14.77125 | 35513 ft | 470 kts | 169° |
| 2026-05-05 19:08 | 76.47255 | 14.79275 | 35623 ft | 470 kts | 170° |
| 2026-05-05 19:08 | 76.44021 | 14.81418 | 35755 ft | 470 kts | 170° |
| 2026-05-05 19:09 | 76.40788 | 14.83548 | 35863 ft | 470 kts | 170° |
| 2026-05-05 19:09 | 76.37553 | 14.85669 | 35999 ft | 470 kts | 170° |
| 2026-05-05 19:09 | 76.32156 | 14.88553 | 36096 ft | 471 kts | 175° |
| 2026-05-05 19:10 | 76.24517 | 14.88903 | 36091 ft | 473 kts | 179° |
| 2026-05-05 19:10 | 76.17953 | 14.88866 | 36087 ft | 471 kts | 179° |
| 2026-05-05 19:11 | 76.12509 | 14.88960 | 36082 ft | 470 kts | 179° |
| 2026-05-05 19:11 | 76.05951 | 14.89125 | 36078 ft | 471 kts | 179° |
| 2026-05-05 19:12 | 75.99399 | 14.89295 | 36073 ft | 470 kts | 179° |
| 2026-05-05 19:12 | 75.92848 | 14.89460 | 36069 ft | 471 kts | 179° |
| 2026-05-05 19:13 | 75.86289 | 14.89620 | 36063 ft | 471 kts | 179° |
| 2026-05-05 19:13 | 75.79743 | 14.89782 | 36057 ft | 470 kts | 179° |
| 2026-05-05 19:14 | 75.73187 | 14.89944 | 36053 ft | 471 kts | 179° |
| 2026-05-05 19:14 | 75.66622 | 14.90099 | 36047 ft | 471 kts | 179° |
| 2026-05-05 19:15 | 75.60102 | 14.90258 | 36039 ft | 471 kts | 179° |
| 2026-05-05 19:15 | 75.53539 | 14.90417 | 36037 ft | 471 kts | 179° |
| 2026-05-05 19:16 | 75.46981 | 14.90570 | 36024 ft | 471 kts | 179° |
| 2026-05-05 19:16 | 75.40456 | 14.90723 | 36028 ft | 471 kts | 179° |
| 2026-05-05 19:17 | 75.33898 | 14.90872 | 36023 ft | 471 kts | 179° |
| 2026-05-05 19:17 | 75.27332 | 14.91023 | 36022 ft | 471 kts | 179° |
| 2026-05-05 19:18 | 75.20777 | 14.91173 | 36016 ft | 471 kts | 179° |
| 2026-05-05 19:18 | 75.14214 | 14.91322 | 36012 ft | 471 kts | 179° |
| 2026-05-05 19:19 | 75.07646 | 14.91468 | 36004 ft | 472 kts | 179° |
| 2026-05-05 19:19 | 75.01116 | 14.91612 | 36003 ft | 471 kts | 179° |
| 2026-05-05 19:20 | 74.94542 | 14.91756 | 35999 ft | 472 kts | 179° |
| 2026-05-05 19:20 | 74.87974 | 14.91902 | 35996 ft | 471 kts | 179° |
| 2026-05-05 19:21 | 74.81400 | 14.92043 | 35995 ft | 473 kts | 179° |
| 2026-05-05 19:21 | 74.74855 | 14.92183 | 35989 ft | 473 kts | 179° |
| 2026-05-05 19:22 | 74.68272 | 14.92323 | 35985 ft | 472 kts | 179° |
| 2026-05-05 19:22 | 74.61694 | 14.92462 | 35974 ft | 473 kts | 179° |
| 2026-05-05 19:23 | 74.55104 | 14.92601 | 35966 ft | 473 kts | 179° |
| 2026-05-05 19:23 | 74.48539 | 14.92738 | 35970 ft | 471 kts | 179° |
| 2026-05-05 19:24 | 74.41979 | 14.92875 | 35972 ft | 473 kts | 179° |
| 2026-05-05 19:24 | 74.35429 | 14.93011 | 35967 ft | 472 kts | 178° |
| 2026-05-05 19:25 | 74.28852 | 14.93166 | 36083 ft | 473 kts | 179° |
| 2026-05-05 19:25 | 74.25558 | 14.93222 | 36242 ft | 472 kts | 179° |
| 2026-05-05 19:25 | 74.22281 | 14.93279 | 36400 ft | 471 kts | 179° |
| 2026-05-05 19:26 | 74.15718 | 14.93398 | 36608 ft | 472 kts | 178° |
| 2026-05-05 19:26 | 74.12428 | 14.93464 | 36719 ft | 472 kts | 179° |
| 2026-05-05 19:26 | 74.09142 | 14.93530 | 36858 ft | 472 kts | 178° |
| 2026-05-05 19:27 | 74.02579 | 14.93658 | 36954 ft | 471 kts | 178° |
| 2026-05-05 19:27 | 73.96057 | 14.93786 | 36945 ft | 472 kts | 178° |
| 2026-05-05 19:28 | 73.89472 | 14.93914 | 36944 ft | 472 kts | 179° |
| 2026-05-05 19:28 | 73.82906 | 14.94039 | 36935 ft | 471 kts | 178° |
| 2026-05-05 19:29 | 73.76362 | 14.94162 | 36934 ft | 471 kts | 178° |
| 2026-05-05 19:29 | 73.69844 | 14.94276 | 36937 ft | 471 kts | 179° |
| 2026-05-05 19:30 | 73.63287 | 14.94398 | 36929 ft | 471 kts | 178° |
| 2026-05-05 19:30 | 73.56725 | 14.94522 | 36927 ft | 471 kts | 179° |
| 2026-05-05 19:31 | 73.50174 | 14.94645 | 36923 ft | 470 kts | 178° |
| 2026-05-05 19:31 | 73.43617 | 14.94768 | 36917 ft | 471 kts | 178° |
| 2026-05-05 19:32 | 73.37058 | 14.94887 | 36911 ft | 471 kts | 178° |
| 2026-05-05 19:32 | 73.30543 | 14.95005 | 36914 ft | 470 kts | 178° |
| 2026-05-05 19:33 | 73.23989 | 14.95126 | 36908 ft | 471 kts | 178° |
| 2026-05-05 19:33 | 73.17436 | 14.95242 | 36902 ft | 470 kts | 178° |
| 2026-05-05 19:34 | 73.10897 | 14.95356 | 36901 ft | 470 kts | 178° |
| 2026-05-05 19:35 | 73.01075 | 14.95528 | 36893 ft | 471 kts | 178° |
| 2026-05-05 19:35 | 72.94519 | 14.95640 | 36887 ft | 471 kts | 178° |
| 2026-05-05 19:36 | 72.87972 | 14.95756 | 36884 ft | 470 kts | 178° |
| 2026-05-05 19:36 | 72.81495 | 14.95868 | 36881 ft | 471 kts | 178° |
| 2026-05-05 19:37 | 72.74902 | 14.95979 | 36876 ft | 471 kts | 178° |
| 2026-05-05 19:37 | 72.68355 | 14.96091 | 36871 ft | 470 kts | 178° |
| 2026-05-05 19:38 | 72.61889 | 14.96201 | 36865 ft | 471 kts | 178° |
| 2026-05-05 19:38 | 72.55351 | 14.96307 | 36858 ft | 469 kts | 178° |
| 2026-05-05 19:39 | 72.48813 | 14.96417 | 36861 ft | 470 kts | 178° |
| 2026-05-05 19:39 | 72.42264 | 14.96525 | 36854 ft | 470 kts | 178° |
| 2026-05-05 19:40 | 72.35731 | 14.96628 | 36849 ft | 469 kts | 178° |
| 2026-05-05 19:40 | 72.29296 | 14.96729 | 36848 ft | 468 kts | 178° |
| 2026-05-05 19:41 | 72.22769 | 14.96836 | 36841 ft | 470 kts | 178° |
| 2026-05-05 19:41 | 72.16235 | 14.96939 | 36831 ft | 469 kts | 178° |
| 2026-05-05 19:42 | 72.09706 | 14.97043 | 36831 ft | 469 kts | 178° |
| 2026-05-05 19:42 | 72.03174 | 14.97145 | 36831 ft | 469 kts | 179° |
| 2026-05-05 19:43 | 71.96647 | 14.97246 | 36822 ft | 469 kts | 179° |
| 2026-05-05 19:43 | 71.90114 | 14.97348 | 36823 ft | 469 kts | 179° |
| 2026-05-05 19:44 | 71.83596 | 14.97450 | 36812 ft | 468 kts | 179° |
| 2026-05-05 19:44 | 71.77070 | 14.97548 | 36806 ft | 468 kts | 179° |
| 2026-05-05 19:45 | 71.70558 | 14.97648 | 36806 ft | 468 kts | 179° |
| 2026-05-05 19:45 | 71.64088 | 14.97746 | 36807 ft | 468 kts | 179° |
| 2026-05-05 19:46 | 71.57581 | 14.97846 | 36797 ft | 467 kts | 179° |
| 2026-05-05 19:46 | 71.51080 | 14.97942 | 36794 ft | 467 kts | 179° |
| 2026-05-05 19:47 | 71.44580 | 14.98036 | 36791 ft | 467 kts | 179° |
| 2026-05-05 19:47 | 71.38084 | 14.98130 | 36791 ft | 467 kts | 179° |
| 2026-05-05 19:48 | 71.31580 | 14.98223 | 36785 ft | 467 kts | 179° |
| 2026-05-05 19:48 | 71.25138 | 14.98316 | 36782 ft | 466 kts | 179° |
| 2026-05-05 19:49 | 71.18648 | 14.98410 | 36780 ft | 466 kts | 179° |
| 2026-05-05 19:49 | 71.12153 | 14.98502 | 36776 ft | 466 kts | 179° |
| 2026-05-05 19:50 | 71.05667 | 14.98593 | 36776 ft | 467 kts | 179° |
| 2026-05-05 19:50 | 70.99175 | 14.98686 | 36766 ft | 466 kts | 179° |
| 2026-05-05 19:51 | 70.92682 | 14.98776 | 36766 ft | 466 kts | 179° |
| 2026-05-05 19:51 | 70.86202 | 14.98865 | 36771 ft | 465 kts | 179° |
| 2026-05-05 19:52 | 70.79726 | 14.98955 | 36765 ft | 465 kts | 179° |
| 2026-05-05 19:52 | 70.73252 | 14.99044 | 36756 ft | 465 kts | 179° |
| 2026-05-05 19:53 | 70.66835 | 14.99130 | 36744 ft | 465 kts | 179° |
| 2026-05-05 19:53 | 70.60360 | 14.99218 | 36740 ft | 465 kts | 179° |
| 2026-05-05 19:54 | 70.53886 | 14.99304 | 36736 ft | 465 kts | 179° |
| 2026-05-05 19:54 | 70.47418 | 14.99390 | 36739 ft | 464 kts | 179° |
| 2026-05-05 19:55 | 70.40993 | 14.99476 | 36744 ft | 464 kts | 180° |
| 2026-05-05 19:55 | 70.34539 | 14.99561 | 36745 ft | 464 kts | 180° |
| 2026-05-05 19:56 | 70.28096 | 14.99645 | 36737 ft | 464 kts | 180° |
| 2026-05-05 19:56 | 70.21634 | 14.99729 | 36728 ft | 463 kts | 180° |
| 2026-05-05 19:57 | 70.15185 | 14.99812 | 36729 ft | 463 kts | 180° |
| 2026-05-05 19:57 | 70.08736 | 14.99895 | 36722 ft | 463 kts | 180° |
| 2026-05-05 19:58 | 70.02284 | 14.99977 | 36729 ft | 463 kts | 180° |
| 2026-05-05 19:58 | 69.95885 | 15.00298 | 36727 ft | 463 kts | 178° |
| 2026-05-05 19:59 | 69.89450 | 15.01218 | 36718 ft | 463 kts | 177° |
| 2026-05-05 19:59 | 69.84067 | 15.01952 | 36722 ft | 462 kts | 178° |
| 2026-05-05 20:00 | 69.77666 | 15.02754 | 36711 ft | 462 kts | 178° |
| 2026-05-05 20:00 | 69.71235 | 15.03534 | 36710 ft | 462 kts | 178° |
| 2026-05-05 20:01 | 69.64806 | 15.04309 | 36721 ft | 462 kts | 178° |
| 2026-05-05 20:01 | 69.58363 | 15.05081 | 36716 ft | 462 kts | 178° |
| 2026-05-05 20:02 | 69.51984 | 15.05842 | 36711 ft | 462 kts | 178° |
| 2026-05-05 20:02 | 69.45563 | 15.06603 | 36702 ft | 462 kts | 178° |
| 2026-05-05 20:03 | 69.39140 | 15.07359 | 36695 ft | 462 kts | 178° |
| 2026-05-05 20:03 | 69.32709 | 15.08112 | 36704 ft | 462 kts | 178° |
| 2026-05-05 20:04 | 69.26291 | 15.08859 | 36705 ft | 461 kts | 178° |